• Join FlightAware (Why Join?)
  • Login
  • US Flag 
Rudolph Flight #1: Scheduled 
09:31PM EST


 

Airport Tracker/Info


-or-


 

Live Flight TrackerFlight Track Log ✈ N4295R ✈ 05-May-2013 ✈ KBKL - KAOO

Flight Track Log - Related Links

Times and Time Zones

All times are in EDT time to prevent confusion due to time zone crossing. See the N4295R flight status page for this flight to view local times or setup timezone preferences in your user account.

Time Position Orientation Groundspeed Altitude Reporting Facility
EDT Latitude Longitude Course Direction KTS MPH feet Rate Location/Type
12:38PM 41.5233 -81.6758 56° Northeast 96 110 1,100  Level Cleveland Center
12:38PM 41.5317 -81.6594 56° Northeast 91 105 1,500 600 Climbing Cleveland Center
12:39PM 41.5361 -81.6233 81° East 106 122 2,100 660 Climbing Cleveland Center
12:40PM 41.5344 -81.5844 93° East 104 120 2,900 420 Climbing Cleveland Center
12:41PM 41.5347 -81.5428 89° East 109 125 3,000 300 Climbing Cleveland Center
12:42PM 41.5311 -81.5014 97° East 111 128 3,600 600 Climbing Cleveland Center
12:43PM 41.5272 -81.4622 98° East 100 115 4,300 600 Climbing Cleveland Center
12:44PM 41.5275 -81.4264 89° East 102 117 4,900 540 Climbing Cleveland Center
12:45PM 41.5256 -81.3931 94° East 107 123 5,400 540 Climbing Cleveland Center
12:46PM 41.5239 -81.3514 93° East 96 110 6,000 540 Climbing Cleveland Center
12:47PM 41.5239 -81.3181 90° East 94 108 6,600 540 Climbing Cleveland Center
12:48PM 41.5200 -81.2847 99° East 90 104 7,100  Climbing Cleveland Center
12:50PM 41.5186 -81.2290 92° East  Level FlightAware Approximate
12:57PM 41.4287 -80.9583 119° Southeast  Level FlightAware Approximate
12:58PM 41.4129 -80.9203 119° Southeast  Level FlightAware Approximate
12:59PM 41.3971 -80.8824 119° Southeast  Level FlightAware Approximate
01:00PM 41.3814 -80.8445 119° Southeast  Level FlightAware Approximate
01:01PM 41.3656 -80.8066 119° Southeast  Level FlightAware Approximate
01:02PM 41.3498 -80.7687 119° Southeast  Level FlightAware Approximate
01:03PM 41.3340 -80.7309 119° Southeast  Level FlightAware Approximate
01:04PM 41.3181 -80.6930 119° Southeast  Level FlightAware Approximate
01:05PM 41.3023 -80.6552 119° Southeast  Level FlightAware Approximate
01:06PM 41.2864 -80.6174 119° Southeast  Level FlightAware Approximate
01:07PM 41.2706 -80.5796 119° Southeast  Level FlightAware Approximate
01:08PM 41.2547 -80.5418 119° Southeast  Level FlightAware Approximate
01:09PM 41.2388 -80.5041 119° Southeast  Level FlightAware Approximate
01:10PM 41.2229 -80.4663 119° Southeast  Level FlightAware Approximate
01:11PM 41.2070 -80.4286 119° Southeast  Level FlightAware Approximate
01:12PM 41.1911 -80.3909 119° Southeast  Level FlightAware Approximate
01:13PM 41.1751 -80.3533 119° Southeast  Level FlightAware Approximate
01:14PM 41.1594 -80.3154 118° Southeast  Level FlightAware Approximate
01:15PM 41.1440 -80.2774 118° Southeast  Level FlightAware Approximate
01:16PM 41.1286 -80.2393 118° Southeast  Level FlightAware Approximate
01:16PM 41.1361 -80.2358 118° Southeast 117 135 7,000  Level Cleveland Center
01:17PM 41.1132 -80.2013 118° Southeast  Level FlightAware Approximate
01:17PM 41.1150 -80.1972 126° Southeast 117 135 7,000  Level Cleveland Center
01:18PM 41.0977 -80.1633 118° Southeast  Level FlightAware Approximate
01:18PM 41.1003 -80.1642 121° Southeast 117 135 7,000  Level Cleveland Center
01:19PM 41.0823 -80.1253 118° Southeast  Level FlightAware Approximate
01:19PM 41.0836 -80.1203 117° Southeast 117 135 7,000  Level Cleveland Center
01:20PM 41.0668 -80.0874 118° Southeast  Level FlightAware Approximate
01:20PM 41.0689 -80.0847 119° Southeast 117 135 7,000  Level Cleveland Center
01:21PM 41.0513 -80.0494 118° Southeast  Level FlightAware Approximate
01:21PM 41.0542 -80.0517 121° Southeast 117 135 7,000  Level Cleveland Center
01:22PM 41.0372 -80.0133 120° Southeast 122 140 7,000  Level Cleveland Center
01:23PM 41.0203 -79.9750 120° Southeast 122 140 7,000  Level Cleveland Center
01:24PM 41.0056 -79.9367 117° Southeast 122 140 7,000  Level Cleveland Center
01:25PM 40.9867 -79.8981 123° Southeast 122 140 7,000  Level Cleveland Center
01:26PM 40.9717 -79.8600 118° Southeast 122 140 7,000  Level Cleveland Center
01:27PM 40.9547 -79.8217 120° Southeast 122 140 7,000  Level Cleveland Center
01:28PM 40.9400 -79.7861 119° Southeast 122 140 7,000  Level Cleveland Center
01:29PM 40.9231 -79.7478 120° Southeast 122 140 7,000  Level Cleveland Center
01:30PM 40.9061 -79.7067 119° Southeast 122 140 7,000  Level Cleveland Center
01:31PM 40.8911 -79.6686 118° Southeast 122 140 7,000  Level Cleveland Center
01:31PM 40.8847 -79.6603 135° Southeast 122 140 7,000  Level Cleveland Center
01:32PM 40.8742 -79.6331 117° Southeast 122 140 7,000  Level Cleveland Center
01:32PM 40.8656 -79.6167 125° Southeast 119 137 7,000  Level Cleveland Center
01:33PM 40.8572 -79.5922 114° Southeast 122 140 7,000  Level Cleveland Center
01:33PM 40.8508 -79.5783 121° Southeast 121 139 7,000  Level Cleveland Center
01:34PM 40.8422 -79.5567 118° Southeast 122 140 7,000  Level Cleveland Center
01:34PM 40.8317 -79.5403 130° Southeast 118 136 7,000  Level Cleveland Center
01:35PM 40.8253 -79.5186 111° Southeast 122 140 7,000  Level Cleveland Center
01:35PM 40.8167 -79.4994 121° Southeast 117 135 7,000  Level Cleveland Center
01:36PM 40.8081 -79.4803 121° Southeast 122 140 7,000  Level Cleveland Center
01:36PM 40.7997 -79.4614 120° Southeast 120 138 7,000  Level Cleveland Center
01:37PM 40.7931 -79.4422 115° Southeast 122 140 7,000  Level Cleveland Center
01:37PM 40.7825 -79.4231 126° Southeast 121 139 7,000  Level Cleveland Center
01:38PM 40.7761 -79.4042 114° Southeast 122 140 7,000  Level Cleveland Center
01:38PM 40.7656 -79.3878 130° Southeast 119 137 7,000  Level Cleveland Center
01:39PM 40.7611 -79.3661 105° East 122 140 7,000  Level Cleveland Center
01:39PM 40.7525 -79.3442 117° Southeast 117 135 7,000  Level Cleveland Center
01:40PM 40.7483 -79.3278 109° East 122 140 7,000  Level Cleveland Center
01:40PM 40.7375 -79.3089 127° Southeast 120 138 7,000  Level Cleveland Center
01:41PM 40.7311 -79.2869 111° Southeast 122 140 7,000  Level Cleveland Center
01:41PM 40.7206 -79.2681 126° Southeast 120 138 7,000  Level Cleveland Center
01:42PM 40.7075 -79.2300 114° Southeast 121 139 7,000  Level Cleveland Center
01:43PM 40.6883 -79.1894 122° Southeast 119 137 7,000  Level Cleveland Center
01:44PM 40.6772 -79.1486 110° East 119 137 7,000  Level Cleveland Center
01:45PM 40.6642 -79.1078 113° Southeast 121 139 7,000  Level Cleveland Center
01:46PM 40.6492 -79.0725 119° Southeast 119 137 7,000  Level Cleveland Center
01:47PM 40.6383 -79.0289 108° East 122 140 7,000  Level Cleveland Center
01:48PM 40.6250 -78.9856 112° Southeast 117 135 7,000  Level Cleveland Center
01:49PM 40.6119 -78.9475 114° Southeast 119 137 7,000 -360 Level Cleveland Center
01:50PM 40.5989 -78.9042 112° Southeast 126 145 6,300 -840 Descending Cleveland Center
01:51PM 40.5836 -78.8633 116° Southeast 125 144 5,400 -720 Descending Cleveland Center
01:52PM 40.5706 -78.8200 112° Southeast 122 140 4,900 -480 Descending Cleveland Center
01:53PM 40.5553 -78.7794 116° Southeast 119 137 4,500 -240 Descending Cleveland Center
01:54PM 40.5444 -78.7442 112° Southeast 115 132 4,500  Level Cleveland Center
01:55PM 40.5417 -78.7006 95° East 116 133 4,500  Level Cleveland Center
01:56PM 40.5389 -78.6597 95° East 117 135 4,500  Level Cleveland Center
01:57PM 40.5339 -78.6106 98° East 124 143 4,500  Level Cleveland Center
01:58PM 40.5267 -78.5700 103° East 123 142 4,500  Level Cleveland Center
01:59PM 40.5239 -78.5208 94° East 122 140 4,500 -60 Level Cleveland Center
02:00PM 40.5189 -78.4772 99° East 122 140 4,400 -60 Descending Cleveland Center
02:01PM 40.5158 -78.4283 95° East 127 146 4,400  Level Cleveland Center
02:02PM 40.5108 -78.3819 98° East 124 143 4,400  Level Cleveland Center
02:03PM 40.5058 -78.3411 99° East 122 140 4,400  Level Cleveland Center
02:05PM 40.5031 -78.3003 95° East 118 136 4,400  Level Cleveland Center
02:06PM 40.4917 -78.2514 107° East 133 153 4,400  Level Cleveland Center
02:07PM 40.4608 -78.2623 155° Southeast  Level Estimated
02:14PM 40.2964 -78.3200 155° Southeast  Level Estimated
02:15PM 40.2964 -78.3200 155° Southeast  Level Estimated
02:16PM 40.2964 -78.3200 155° Southeast  Level Estimated